Latest Weather Observations for Flinders Reef

IDQ60801

Issued at 6:05 pm EST Wednesday 23 April 2014 (issued every 30 minutes, with the page automatically refreshed every 10 minutes)

About weather observations | Map of weather stations | Latest weather observations for QLD | Other Formats
Station Details ID: 200783 Name: FLINDERS REEF Lat: -17.72 Lon: 148.45 Height: 2.6 m
Data from the previous 72 hours. | See also: Recent months at Flinders Reef
Date/Time
EST
Temp
°C
App
Temp
°C
Dew
Point
Rel
Hum
%
Delta-T
°C
Wind Press
QNH
hPa
Press
MSL
hPa
Rain
since 9 am
mm
Dir
 
Spd
km/h
Gust
km/h
Spd
kts
Gust
kts
23/06:00pm 26.5 - - - - S 19 20 10 11 1010.9 - -
23/05:30pm 26.5 - - - - SSE 19 22 10 12 1010.7 - -
23/05:24pm 26.5 - - - - SSE 19 - 10 - - 1010.6 -
23/05:00pm 26.4 - - - - S 19 22 10 12 1010.5 - -
23/04:30pm 26.3 - - - - S 20 22 11 12 1010.3 - -
23/04:24pm 26.4 - - - - S 19 - 10 - - 1010.1 -
23/04:00pm 25.8 - - - - S 24 30 13 16 1010.1 - -
23/03:30pm 26.2 - - - - SSE 24 28 13 15 1010.0 - -
23/03:24pm 26.1 - - - - SSE 24 - 13 - - 1010.0 -
23/03:00pm 26.6 - - - - SSE 26 30 14 16 1010.1 - -
23/02:30pm 26.9 - - - - SSE 26 30 14 16 1010.3 - -
23/02:24pm 26.9 - - - - SSE 26 - 14 - - 1010.2 -
23/02:00pm 27.0 - - - - SSE 28 33 15 18 1010.5 - -
23/01:30pm 26.9 - - - - SSE 28 33 15 18 1010.6 - -
23/01:24pm 26.7 - - - - SSE 28 - 15 - - 1010.7 -
23/01:00pm 26.6 - - - - SE 26 33 14 18 1011.3 - -
23/12:30pm 26.8 - - - - SSE 24 32 13 17 1011.8 - -
23/12:24pm 26.8 - - - - SE 26 - 14 - - 1011.8 -
23/12:00pm 27.2 - - - - SE 26 28 14 15 1012.0 - -
23/11:30am 27.3 - - - - SE 28 32 15 17 1012.4 - -
23/11:24am 27.2 - - - - SE 28 - 15 - - 1012.4 -
23/11:00am 26.9 - - - - SE 28 32 15 17 1012.7 - -
23/10:30am 27.5 - - - - SE 24 28 13 15 1013.3 - -
23/10:24am 27.5 - - - - SE 26 - 14 - - 1013.2 -
23/10:00am 27.2 - - - - SE 26 30 14 16 1013.3 - -
23/09:30am 27.3 - - - - SE 28 32 15 17 1013.2 - -
23/09:24am 27.1 - - - - SE 30 - 16 - - 1013.1 -
23/09:00am 27.1 - - - - SE 30 37 16 20 1013.1 - -
23/08:30am 27.0 - - - - ESE 28 32 15 17 1013.0 - -
23/08:24am 27.1 - - - - SE 30 - 16 - - 1012.8 -
23/08:00am 27.2 - - - - ESE 32 37 17 20 1012.6 - -
23/07:30am 26.8 - - - - ESE 33 37 18 20 1012.4 - -
23/07:24am 26.8 - - - - SE 33 - 18 - - 1012.3 -
23/07:00am 26.8 - - - - ESE 32 35 17 19 1012.3 - -
23/06:30am 26.8 - - - - ESE 30 35 16 19 1012.0 - -
23/06:24am 26.6 - - - - ESE 30 - 16 - - 1011.9 -
23/06:00am 26.7 - - - - SE 30 33 16 18 1012.0 - -
23/05:30am 26.6 - - - - ESE 28 32 15 17 1011.8 - -
23/05:24am 26.5 - - - - ESE 28 - 15 - - 1011.7 -
23/05:00am 26.6 - - - - ESE 32 35 17 19 1011.9 - -
23/04:30am 26.8 - - - - ESE 30 33 16 18 1011.8 - -
23/04:24am 26.7 - - - - ESE 30 - 16 - - 1011.8 -
23/04:00am 26.6 - - - - ESE 28 33 15 18 1011.8 - -
23/03:30am 26.7 - - - - ESE 28 33 15 18 1011.9 - -
23/03:24am 26.8 - - - - ESE 28 - 15 - - 1011.8 -
23/03:00am 26.7 - - - - ESE 32 35 17 19 1012.0 - -
23/02:30am 26.6 - - - - ESE 33 37 18 20 1012.0 - -
23/02:24am 26.7 - - - - ESE 32 - 17 - - 1011.9 -
23/02:00am 26.7 - - - - ESE 32 37 17 20 1012.3 - -
23/01:30am 26.6 - - - - ESE 30 35 16 19 1012.8 - -
23/01:24am 26.8 - - - - ESE 30 - 16 - - 1012.7 -
23/01:00am 26.7 - - - - ESE 30 33 16 18 1013.0 - -
23/12:30am 26.8 - - - - ESE 30 35 16 19 1013.5 - -
23/12:24am 26.8 - - - - ESE 32 - 17 - - 1013.5 -
23/12:00am 26.8 - - - - ESE 32 35 17 19 1013.9 - -
 
Date/Time
EST
Temp
°C
App
Temp
°C
Dew
Point
Rel
Hum
%
Delta-T
°C
Wind Press
QNH
hPa
Press
MSL
hPa
Rain
since 9 am
mm
Dir
 
Spd
km/h
Gust
km/h
Spd
kts
Gust
kts
22/11:30pm 26.8 - - - - ESE 32 37 17 20 1013.9 - -
22/11:24pm 26.7 - - - - ESE 32 - 17 - - 1013.8 -
22/11:00pm 26.8 - - - - ESE 32 37 17 20 1014.2 - -
22/10:30pm 26.7 - - - - ESE 33 41 18 22 1014.3 - -
22/10:24pm 26.6 - - - - ESE 32 - 17 - - 1014.3 -
22/10:00pm 26.8 - - - - ESE 32 37 17 20 1014.6 - -
22/09:30pm 26.6 - - - - ESE 32 35 17 19 1014.6 - -
22/09:24pm 26.6 - - - - ESE 33 - 18 - - 1014.5 -
22/09:00pm 26.5 - - - - SE 32 35 17 19 1014.6 - -
22/08:30pm 26.7 - - - - SE 35 43 19 23 1014.6 - -
22/08:24pm 26.6 - - - - SE 35 - 19 - - 1014.3 -
22/08:00pm 26.6 - - - - SE 35 44 19 24 1014.4 - -
22/07:30pm 26.5 - - - - SE 33 39 18 21 1014.2 - -
22/07:24pm 26.6 - - - - SE 33 - 18 - - 1014.2 -
22/07:00pm 26.7 - - - - SE 37 41 20 22 1013.8 - -
22/06:30pm 26.6 - - - - SE 35 41 19 22 1013.7 - -
22/06:24pm 26.5 - - - - SE 35 - 19 - - 1013.5 -
22/06:00pm 26.7 - - - - SE 35 39 19 21 1013.5 - -
22/05:30pm 26.6 - - - - SE 35 41 19 22 1013.3 - -
22/05:24pm 26.6 - - - - SE 35 - 19 - - 1013.1 -
22/05:00pm 26.6 - - - - SE 35 43 19 23 1013.1 - -
22/04:30pm 26.7 - - - - SE 33 41 18 22 1013.1 - -
22/04:24pm 26.5 - - - - SE 35 - 19 - - 1013.0 -
22/04:00pm 26.5 - - - - SE 35 41 19 22 1013.0 - -
22/03:30pm 26.6 - - - - SE 33 39 18 21 1013.0 - -
22/03:24pm 26.6 - - - - SE 33 - 18 - - 1012.8 -
22/03:00pm 26.9 - - - - SE 32 35 17 19 1013.0 - -
22/02:30pm 26.7 - - - - SE 30 35 16 19 1013.3 - -
22/02:24pm 26.7 - - - - SE 30 - 16 - - 1013.3 -
22/02:00pm 26.7 - - - - ESE 32 35 17 19 1013.3 - -
22/01:30pm 26.7 - - - - ESE 30 35 16 19 1013.7 - -
22/01:24pm 26.9 - - - - ESE 30 - 16 - - 1013.8 -
22/01:00pm 26.8 - - - - SE 32 35 17 19 1014.0 - -
22/12:30pm 26.8 - - - - SE 32 35 17 19 1014.4 - -
22/12:24pm 26.8 - - - - SE 32 - 17 - - 1014.4 -
22/12:00pm 26.8 - - - - SE 32 37 17 20 1014.8 - -
22/11:30am 26.8 - - - - ESE 32 37 17 20 1015.4 - -
22/11:24am 26.8 - - - - ESE 32 - 17 - - 1015.4 -
22/11:00am 26.9 - - - - ESE 32 39 17 21 1015.8 - -
22/10:30am 26.7 - - - - ESE 35 39 19 21 1016.0 - -
22/10:24am 26.7 - - - - ESE 35 - 19 - - 1015.9 -
22/10:00am 26.8 - - - - ESE 35 41 19 22 1016.1 - -
22/09:30am 26.6 - - - - SE 33 39 18 21 1016.1 - -
22/09:24am 26.7 - - - - SE 33 - 18 - - 1016.1 -
22/09:00am 26.7 - - - - ESE 32 35 17 19 1016.2 - -
22/08:30am 26.4 - - - - ESE 32 39 17 21 1015.8 - -
22/08:24am 26.4 - - - - ESE 33 - 18 - - 1015.7 -
22/08:00am 26.5 - - - - ESE 35 41 19 22 1015.7 - -
22/07:30am 26.4 - - - - ESE 33 39 18 21 1015.5 - -
22/07:24am 26.5 - - - - ESE 33 - 18 - - 1015.3 -
22/07:00am 26.3 - - - - ESE 33 39 18 21 1015.3 - -
22/06:30am 26.3 - - - - E 35 39 19 21 1014.9 - -
22/06:24am 26.5 - - - - E 35 - 19 - - 1014.8 -
22/06:00am 26.5 - - - - E 33 39 18 21 1014.8 - -
22/05:30am 26.4 - - - - ESE 32 37 17 20 1014.7 - -
22/05:24am 26.3 - - - - ESE 32 - 17 - - 1014.6 -
22/05:00am 26.3 - - - - ESE 32 37 17 20 1014.4 - -
22/04:30am 26.5 - - - - E 33 41 18 22 1014.5 - -
22/04:24am 26.4 - - - - ESE 33 - 18 - - 1014.3 -
22/04:00am 26.5 - - - - ESE 33 37 18 20 1014.4 - -
22/03:30am 26.5 - - - - ESE 35 43 19 23 1014.1 - -
22/03:24am 26.5 - - - - ESE 35 - 19 - - 1014.1 -
22/03:00am 26.4 - - - - ESE 37 43 20 23 1014.3 - -
22/02:30am 26.5 - - - - ESE 35 39 19 21 1014.7 - -
22/02:24am 26.3 - - - - ESE 35 - 19 - - 1014.5 -
22/02:00am 26.3 - - - - ESE 35 43 19 23 1014.8 - -
22/01:30am 26.5 - - - - ESE 35 43 19 23 1015.0 - -
22/01:24am 26.5 - - - - ESE 37 - 20 - - 1015.0 -
22/01:00am 26.4 - - - - E 35 41 19 22 1015.3 - -
22/12:30am 26.3 - - - - E 39 44 21 24 1015.6 - -
22/12:24am 26.4 - - - - E 39 - 21 - - 1015.5 -
22/12:00am 26.5 - - - - ESE 39 46 21 25 1015.8 - -
 
Date/Time
EST
Temp
°C
App
Temp
°C
Dew
Point
Rel
Hum
%
Delta-T
°C
Wind Press
QNH
hPa
Press
MSL
hPa
Rain
since 9 am
mm
Dir
 
Spd
km/h
Gust
km/h
Spd
kts
Gust
kts
21/11:30pm 26.5 - - - - E 41 46 22 25 1015.8 - -
21/11:24pm 26.3 - - - - E 41 - 22 - - 1015.7 -
21/11:00pm 26.4 - - - - E 43 50 23 27 1015.8 - -
21/10:30pm 26.6 - - - - ESE 43 48 23 26 1015.9 - -
21/10:24pm 26.6 - - - - ESE 41 - 22 - - 1015.9 -
21/10:00pm 26.5 - - - - E 41 48 22 26 1015.9 - -
21/09:30pm 26.5 - - - - ESE 43 46 23 25 1016.0 - -
21/09:24pm 26.6 - - - - ESE 43 - 23 - - 1015.8 -
21/09:00pm 26.6 - - - - ESE 43 48 23 26 1016.1 - -
21/08:30pm 26.8 - - - - ESE 39 44 21 24 1016.0 - -
21/08:24pm 26.6 - - - - E 37 - 20 - - 1016.0 -
21/08:00pm 26.7 - - - - E 37 43 20 23 1016.0 - -
21/07:30pm 26.4 - - - - ESE 37 43 20 23 1015.9 - -
21/07:24pm 26.4 - - - - ESE 37 - 20 - - 1015.8 -
21/07:00pm 26.3 - - - - ESE 37 44 20 24 1015.6 - -
21/06:30pm 25.6 - - - - ESE 43 50 23 27 1015.3 - -
21/06:24pm 25.2 - - - - ESE 43 - 23 - - 1015.1 -
21/06:00pm 24.7 - - - - SE 39 46 21 25 1015.0 - -
21/05:30pm 24.8 - - - - SE 41 54 22 29 1014.8 - -
21/05:24pm 24.9 - - - - SE 41 - 22 - - 1014.7 -
21/05:13pm 25.3 - - - - SE 44 50 24 27 1014.6 - -
21/05:00pm 25.9 - - - - E 39 44 21 24 1014.3 - -
21/04:30pm 25.1 - - - - E 39 48 21 26 1014.2 - -
21/04:24pm 25.9 - - - - E 33 - 18 - - 1014.1 -
21/04:00pm 24.5 - - - - E 37 46 20 25 1014.0 - -
21/03:30pm 25.0 - - - - E 37 46 20 25 1014.0 - -
21/03:24pm 25.1 - - - - E 39 - 21 - - 1013.8 -
21/03:16pm 25.1 - - - - E 28 48 15 26 1013.8 - -
21/03:00pm 25.2 - - - - ESE 33 39 18 21 1014.1 - -
21/02:30pm 24.1 - - - - ESE 41 46 22 25 1013.8 - -
21/02:24pm 24.3 - - - - ESE 39 - 21 - - 1013.6 -
21/02:00pm 24.4 - - - - E 39 46 21 25 1013.8 - -
21/01:30pm 25.0 - - - - E 37 44 20 24 1013.9 - -
21/01:24pm 25.0 - - - - E 33 - 18 - - 1013.9 -
21/01:00pm 25.6 - - - - ESE 33 44 18 24 1014.2 - -
21/12:35pm 26.3 - - - - E 37 43 20 23 1014.3 - -
21/12:30pm 26.5 - - - - ESE 37 43 20 23 1014.3 - -
21/12:24pm 26.7 - - - - ESE 37 - 20 - - 1014.3 -
21/12:00pm 26.8 - - - - ESE 39 44 21 24 1014.6 - -
21/11:30am 26.9 - - - - ESE 39 44 21 24 1014.9 - -
21/11:24am 26.7 - - - - ESE 39 - 21 - - 1014.9 -
21/11:00am 26.8 - - - - ESE 37 43 20 23 1015.4 - -
21/10:30am 27.0 - - - - ESE 39 44 21 24 1015.5 - -
21/10:24am 26.9 - - - - ESE 41 - 22 - - 1015.4 -
21/10:00am 26.9 - - - - ESE 39 46 21 25 1015.6 - -
21/09:30am 27.0 - - - - ESE 41 48 22 26 1015.7 - -
21/09:24am 26.9 - - - - ESE 41 - 22 - - 1015.6 -
21/09:00am 26.8 - - - - ESE 39 46 21 25 1015.8 - -
21/08:30am 26.7 - - - - ESE 39 46 21 25 1015.6 - -
21/08:24am 26.9 - - - - ESE 39 - 21 - - 1015.5 -
21/08:00am 26.6 - - - - ESE 39 46 21 25 1015.6 - -
21/07:30am 26.5 - - - - ESE 41 46 22 25 1015.4 - -
21/07:24am 26.6 - - - - ESE 41 - 22 - - 1015.2 -
21/07:00am 26.5 - - - - ESE 41 46 22 25 1015.2 - -
21/06:30am 26.4 - - - - ESE 41 46 22 25 1015.0 - -
21/06:24am 26.5 - - - - ESE 43 - 23 - - 1014.8 -
21/06:00am 26.3 - - - - ESE 39 44 21 24 1014.5 - -
21/05:30am 26.2 - - - - ESE 39 48 21 26 1014.2 - -
21/05:24am 26.6 - - - - ESE 39 - 21 - - 1014.1 -
21/05:00am 25.3 - - - - SE 37 43 20 23 1014.0 - -
21/04:30am 26.2 - - - - SE 37 44 20 24 1013.9 - -
21/04:24am 25.9 - - - - SE 39 - 21 - - 1013.7 -
21/04:00am 26.0 - - - - SE 41 46 22 25 1013.6 - -
21/03:56am 25.8 - - - - SE 41 48 22 26 1013.5 - -
21/03:30am 25.1 - - - - E 39 46 21 25 1013.6 - -
21/03:24am 25.6 - - - - E 39 - 21 - - 1013.4 -
21/03:00am 26.1 - - - - E 37 44 20 24 1013.6 - -
21/02:30am 26.5 - - - - ESE 39 44 21 24 1013.6 - -
21/02:24am 26.4 - - - - ESE 39 - 21 - - 1013.5 -
21/02:00am 26.2 - - - - ESE 43 48 23 26 1013.5 - -
21/01:30am 26.3 - - - - SE 41 46 22 25 1013.8 - -
21/01:24am 26.4 - - - - ESE 41 - 22 - - 1013.8 -
21/01:00am 26.5 - - - - SE 41 46 22 25 1014.2 - -
21/12:30am 26.5 - - - - SE 39 44 21 24 1014.6 - -
21/12:24am 26.5 - - - - SE 37 - 20 - - 1014.5 -
21/12:00am 26.3 - - - - ESE 37 44 20 24 1014.8 - -
 
Date/Time
EST
Temp
°C
App
Temp
°C
Dew
Point
Rel
Hum
%
Delta-T
°C
Wind Press
QNH
hPa
Press
MSL
hPa
Rain
since 9 am
mm
Dir
 
Spd
km/h
Gust
km/h
Spd
kts
Gust
kts
20/11:30pm 25.9 - - - - E 39 46 21 25 1015.0 - -
20/11:25pm 25.8 - - - - ESE 39 46 21 25 1015.0 - -
20/11:24pm 25.8 - - - - ESE 39 - 21 - - 1014.9 -
20/11:00pm 26.5 - - - - SE 37 44 20 24 1015.1 - -
20/10:30pm 26.4 - - - - SE 39 44 21 24 1015.3 - -
20/10:24pm 26.5 - - - - ESE 39 - 21 - - 1015.2 -
20/10:00pm 26.4 - - - - SE 37 43 20 23 1015.4 - -
20/09:30pm 26.4 - - - - SE 39 46 21 25 1015.3 - -
20/09:24pm 26.5 - - - - SE 37 - 20 - - 1015.2 -
20/09:00pm 26.6 - - - - SE 37 43 20 23 1015.4 - -
20/08:30pm 26.8 - - - - SE 33 41 18 22 1015.5 - -
20/08:24pm 26.7 - - - - SE 33 - 18 - - 1015.4 -
20/08:00pm 26.6 - - - - SE 33 41 18 22 1015.3 - -
20/07:30pm 26.6 - - - - SE 37 41 20 22 1014.8 - -
20/07:24pm 26.5 - - - - SE 35 - 19 - - 1014.7 -
20/07:00pm 26.5 - - - - SE 35 41 19 22 1014.4 - -
20/06:30pm 26.6 - - - - SE 35 41 19 22 1014.2 - -
20/06:24pm 26.5 - - - - SE 33 - 18 - - 1014.0 -

Other Formats:

Comma delimited format used in spreadsheet applications
http://www.bom.gov.au/fwo/IDQ60801/IDQ60801.94290.axf

JavaScript Object Notation format (JSON) in row-major order
http://www.bom.gov.au/fwo/IDQ60801/IDQ60801.94290.json